Time;durP1;ratioP1;P1;durP2;ratioP2;P2;SDS_P1;SDS_P2;PMS_P1;PMS_P2;Temp;Humidity;BMP_temperature;BMP_pressure;BME280_temperature;BME280_humidity;BME280_pressure;Samples;Min_cycle;Max_cycle;Signal;HPM_P1;HPM_P2
2023/05/06 00:00:26;;;;;;;1.70;1.60;;;;;;;;;;5019495;28;20641;-65
2023/05/06 00:02:54;;;;;;;1.58;1.48;;;;;;;;;;5018888;28;20217;-65
2023/05/06 00:05:22;;;;;;;1.70;1.60;;;;;;;;;;5019399;28;20594;-65
2023/05/06 00:07:49;;;;;;;1.55;1.45;;;;;;;;;;5019770;28;20206;-65
2023/05/06 00:10:17;;;;;;;1.77;1.67;;;;;;;;;;5019403;28;20656;-65
2023/05/06 00:12:46;;;;;;;1.70;1.60;;;;;;;;;;5019738;28;20516;-65
2023/05/06 00:15:13;;;;;;;1.60;1.50;;;;;;;;;;5019595;28;20542;-65
2023/05/06 00:17:41;;;;;;;1.40;1.30;;;;;;;;;;5019362;28;20207;-65
2023/05/06 00:20:09;;;;;;;1.75;1.50;;;;;;;;;;5018587;28;20544;-65
2023/05/06 00:22:37;;;;;;;1.58;1.48;;;;;;;;;;5019435;28;20207;-65
2023/05/06 00:25:05;;;;;;;1.42;1.30;;;;;;;;;;5019415;28;20297;-65
2023/05/06 00:27:33;;;;;;;1.75;1.58;;;;;;;;;;5019146;28;20221;-65
2023/05/06 00:30:03;;;;;;;1.50;1.40;;;;;;;;;;5019075;28;20241;-65
2023/05/06 00:32:31;;;;;;;1.60;1.50;;;;;;;;;;5018850;28;20264;-65
2023/05/06 00:34:58;;;;;;;1.73;1.38;;;;;;;;;;5019118;28;20206;-65
2023/05/06 00:37:26;;;;;;;1.52;1.42;;;;;;;;;;5019107;28;20375;-65
2023/05/06 00:39:53;;;;;;;1.60;1.50;;;;;;;;;;5019102;28;20248;-65
2023/05/06 00:42:22;;;;;;;1.60;1.50;;;;;;;;;;5018850;28;20650;-65
2023/05/06 00:44:49;;;;;;;1.60;1.50;;;;;;;;;;5018867;28;20246;-65
2023/05/06 00:47:19;;;;;;;1.50;1.40;;;;;;;;;;5017828;28;20206;-65
2023/05/06 00:49:47;;;;;;;1.55;1.45;;;;;;;;;;5018251;28;20234;-65
2023/05/06 00:52:15;;;;;;;1.70;1.60;;;;;;;;;;5018609;28;20253;-65
2023/05/06 00:54:43;;;;;;;1.50;1.40;;;;;;;;;;5018240;28;20234;-65
2023/05/06 00:57:10;;;;;;;1.60;1.50;;;;;;;;;;5018625;28;20214;-65
2023/05/06 00:59:39;;;;;;;1.67;1.58;;;;;;;;;;5018478;28;20203;-65
2023/05/06 01:02:07;;;;;;;1.60;1.50;;;;;;;;;;5018484;28;20210;-65
2023/05/06 01:04:36;;;;;;;1.73;1.63;;;;;;;;;;5018506;28;20214;-66
2023/05/06 01:07:09;;;;;;;1.45;1.35;;;;;;;;;;5018848;28;20206;-65
2023/05/06 01:09:39;;;;;;;1.30;1.20;;;;;;;;;;5018551;28;20610;-65
2023/05/06 01:12:08;;;;;;;2.28;1.50;;;;;;;;;;5018295;28;20563;-65
2023/05/06 01:14:39;;;;;;;1.50;1.40;;;;;;;;;;5018478;28;20237;-65
2023/05/06 01:17:10;;;;;;;1.58;1.48;;;;;;;;;;5018094;28;20300;-65
2023/05/06 01:19:41;;;;;;;1.50;1.40;;;;;;;;;;5018131;28;20203;-65
2023/05/06 01:22:10;;;;;;;1.40;1.30;;;;;;;;;;5017270;28;20304;-65
2023/05/06 01:24:40;;;;;;;1.25;1.25;;;;;;;;;;5018405;28;20557;-65
2023/05/06 01:27:08;;;;;;;1.45;1.35;;;;;;;;;;5018071;28;20206;-65
2023/05/06 01:29:37;;;;;;;1.52;1.42;;;;;;;;;;5018027;28;20299;-65
2023/05/06 01:32:09;;;;;;;1.60;1.50;;;;;;;;;;5017974;28;20217;-65
2023/05/06 01:34:43;;;;;;;1.50;1.40;;;;;;;;;;5018077;28;20308;-65
2023/05/06 01:37:15;;;;;;;1.55;1.45;;;;;;;;;;5018220;28;20284;-65
2023/05/06 01:39:45;;;;;;;1.60;1.50;;;;;;;;;;5017906;28;20268;-65
2023/05/06 01:42:14;;;;;;;1.60;1.50;;;;;;;;;;5018192;28;20309;-65
2023/05/06 01:44:43;;;;;;;1.60;1.50;;;;;;;;;;5017910;28;20513;-65
2023/05/06 01:47:12;;;;;;;1.60;1.50;;;;;;;;;;5017875;28;20288;-65
2023/05/06 01:49:40;;;;;;;1.35;1.25;;;;;;;;;;5017585;28;20245;-65
2023/05/06 01:52:08;;;;;;;1.75;1.65;;;;;;;;;;5017502;28;20238;-65
2023/05/06 01:54:35;;;;;;;1.60;1.50;;;;;;;;;;5017631;28;20486;-65
2023/05/06 01:57:04;;;;;;;1.40;1.30;;;;;;;;;;5017473;28;20207;-65
2023/05/06 01:59:32;;;;;;;1.40;1.30;;;;;;;;;;5017387;28;20237;-65
2023/05/06 02:01:59;;;;;;;1.45;1.35;;;;;;;;;;5017705;28;20229;-65
2023/05/06 02:04:27;;;;;;;1.63;1.40;;;;;;;;;;5017582;28;20198;-65
2023/05/06 02:06:55;;;;;;;1.50;1.40;;;;;;;;;;5017647;28;20206;-65
2023/05/06 02:09:23;;;;;;;1.40;1.30;;;;;;;;;;5017376;28;20542;-65
2023/05/06 02:11:51;;;;;;;1.60;1.50;;;;;;;;;;5017256;28;20326;-65
2023/05/06 02:14:20;;;;;;;1.33;1.23;;;;;;;;;;5017406;28;20206;-65
2023/05/06 02:16:47;;;;;;;1.40;1.27;;;;;;;;;;5017747;28;20493;-65
2023/05/06 02:19:15;;;;;;;1.58;1.48;;;;;;;;;;5017766;28;20549;-65
2023/05/06 02:21:42;;;;;;;1.60;1.50;;;;;;;;;;5017466;28;20260;-65
2023/05/06 02:24:10;;;;;;;1.50;1.40;;;;;;;;;;5017682;28;20711;-65
2023/05/06 02:26:37;;;;;;;1.60;1.50;;;;;;;;;;5017652;28;20214;-65
2023/05/06 02:29:05;;;;;;;1.67;1.58;;;;;;;;;;5017447;28;20211;-65
2023/05/06 02:31:34;;;;;;;1.60;1.50;;;;;;;;;;5017301;28;20288;-65
2023/05/06 02:34:01;;;;;;;1.58;1.48;;;;;;;;;;5017309;28;20214;-65
2023/05/06 02:36:29;;;;;;;1.60;1.50;;;;;;;;;;5017308;28;20246;-65
2023/05/06 02:38:57;;;;;;;1.50;1.40;;;;;;;;;;5017791;28;20305;-65
2023/05/06 02:41:24;;;;;;;1.50;1.40;;;;;;;;;;5017074;28;20256;-65
2023/05/06 02:43:52;;;;;;;1.42;1.33;;;;;;;;;;5017682;28;20210;-65
2023/05/06 02:46:19;;;;;;;1.40;1.30;;;;;;;;;;5016909;28;20214;-66
2023/05/06 02:48:48;;;;;;;2.08;1.60;;;;;;;;;;5017313;28;20214;-65
2023/05/06 02:51:16;;;;;;;1.42;1.33;;;;;;;;;;5017432;28;20230;-65
2023/05/06 02:53:43;;;;;;;1.40;1.30;;;;;;;;;;5017074;28;20649;-65
2023/05/06 02:56:11;;;;;;;1.40;1.30;;;;;;;;;;5017487;28;20690;-65
2023/05/06 02:58:38;;;;;;;1.20;1.20;;;;;;;;;;5016956;28;20233;-65
2023/05/06 03:01:06;;;;;;;1.48;1.38;;;;;;;;;;5017191;28;20210;-65
2023/05/06 03:03:33;;;;;;;1.40;1.30;;;;;;;;;;5016909;28;20305;-65
2023/05/06 03:06:03;;;;;;;1.30;1.20;;;;;;;;;;5016842;28;20211;-65
2023/05/06 03:08:30;;;;;;;1.63;1.52;;;;;;;;;;5017131;28;20297;-65
2023/05/06 03:10:58;;;;;;;1.35;1.30;;;;;;;;;;5019639;28;20229;-65
2023/05/06 03:13:25;;;;;;;1.40;1.30;;;;;;;;;;5019936;28;20296;-65
2023/05/06 03:15:53;;;;;;;1.50;1.40;;;;;;;;;;5020590;28;20217;-65
2023/05/06 03:18:23;;;;;;;1.55;1.45;;;;;;;;;;5020225;28;20682;-65
2023/05/06 03:20:50;;;;;;;1.40;1.30;;;;;;;;;;5020291;28;20238;-65
2023/05/06 03:23:19;;;;;;;1.63;1.52;;;;;;;;;;5020721;28;20230;-65
2023/05/06 03:25:47;;;;;;;1.35;1.25;;;;;;;;;;5020506;28;20218;-65
2023/05/06 03:28:14;;;;;;;1.45;1.35;;;;;;;;;;5020171;28;20668;-65
2023/05/06 03:30:42;;;;;;;1.10;1.10;;;;;;;;;;5019855;28;20234;-65
2023/05/06 03:33:10;;;;;;;1.75;1.30;;;;;;;;;;5020475;28;20206;-65
2023/05/06 03:35:37;;;;;;;1.30;1.20;;;;;;;;;;5020441;28;20211;-65
2023/05/06 03:38:05;;;;;;;2.25;1.30;;;;;;;;;;5020441;28;20213;-65
2023/05/06 03:40:34;;;;;;;1.40;1.30;;;;;;;;;;5020445;28;20538;-65
2023/05/06 03:43:01;;;;;;;1.20;1.20;;;;;;;;;;5019818;28;20583;-65
2023/05/06 03:45:29;;;;;;;1.50;1.40;;;;;;;;;;5019705;28;20206;-65
2023/05/06 03:47:56;;;;;;;1.10;1.10;;;;;;;;;;5019672;28;20303;-65
2023/05/06 03:50:24;;;;;;;1.50;1.40;;;;;;;;;;5019321;28;20237;-65
2023/05/06 03:52:52;;;;;;;1.40;1.30;;;;;;;;;;5019443;28;20206;-65
2023/05/06 03:55:19;;;;;;;1.40;1.30;;;;;;;;;;5019584;28;20205;-65
2023/05/06 03:57:48;;;;;;;1.50;1.40;;;;;;;;;;5019711;28;20210;-65
2023/05/06 04:00:16;;;;;;;1.40;1.30;;;;;;;;;;5019927;28;20207;-65
2023/05/06 04:02:44;;;;;;;1.38;1.27;;;;;;;;;;5019509;28;20218;-65
2023/05/06 04:05:11;;;;;;;1.35;1.20;;;;;;;;;;5020141;28;20203;-65
2023/05/06 04:07:38;;;;;;;1.40;1.30;;;;;;;;;;5019752;28;20206;-65
2023/05/06 04:10:06;;;;;;;1.42;1.33;;;;;;;;;;5020069;28;20210;-65
2023/05/06 04:12:34;;;;;;;1.38;1.27;;;;;;;;;;5019549;28;20226;-65
2023/05/06 04:15:03;;;;;;;1.30;1.20;;;;;;;;;;5019654;28;20672;-65
2023/05/06 04:17:30;;;;;;;1.40;1.30;;;;;;;;;;5019708;28;20479;-65
2023/05/06 04:19:57;;;;;;;1.40;1.30;;;;;;;;;;5019582;28;20214;-65
2023/05/06 04:22:25;;;;;;;1.48;1.38;;;;;;;;;;5019080;28;20225;-65
2023/05/06 04:24:53;;;;;;;1.17;1.08;;;;;;;;;;5019251;28;20219;-65
2023/05/06 04:27:20;;;;;;;1.27;1.17;;;;;;;;;;5019414;28;20217;-65
2023/05/06 04:29:47;;;;;;;1.25;1.23;;;;;;;;;;5019377;28;20206;-65
2023/05/06 04:32:16;;;;;;;1.38;1.27;;;;;;;;;;5018623;28;20223;-65
2023/05/06 04:34:46;;;;;;;1.30;1.25;;;;;;;;;;5018893;28;20273;-65
2023/05/06 04:37:14;;;;;;;1.30;1.30;;;;;;;;;;5018650;28;20213;-65
2023/05/06 04:39:46;;;;;;;1.30;1.20;;;;;;;;;;5018796;28;20563;-65
2023/05/06 04:42:13;;;;;;;1.15;1.15;;;;;;;;;;5018975;28;20210;-65
2023/05/06 04:44:41;;;;;;;1.40;1.30;;;;;;;;;;5018768;28;20206;-65
2023/05/06 04:47:08;;;;;;;1.30;1.20;;;;;;;;;;5018723;28;20226;-65
2023/05/06 04:49:37;;;;;;;1.10;1.10;;;;;;;;;;5018783;28;20253;-65
2023/05/06 04:52:05;;;;;;;1.48;1.20;;;;;;;;;;5018701;28;20226;-65
2023/05/06 04:54:32;;;;;;;1.08;1.00;;;;;;;;;;5018337;28;20214;-65
2023/05/06 04:57:00;;;;;;;1.27;1.17;;;;;;;;;;5018512;28;20214;-65
2023/05/06 04:59:27;;;;;;;1.30;1.20;;;;;;;;;;5018506;28;20206;-65
2023/05/06 05:01:54;;;;;;;1.30;1.20;;;;;;;;;;5019222;28;20203;-65
2023/05/06 05:04:21;;;;;;;1.30;1.20;;;;;;;;;;5018764;28;20226;-65
2023/05/06 05:06:51;;;;;;;1.30;1.20;;;;;;;;;;5018391;28;20218;-65
2023/05/06 05:09:18;;;;;;;1.42;1.33;;;;;;;;;;5018313;28;20214;-65
2023/05/06 05:11:46;;;;;;;1.30;1.02;;;;;;;;;;5018087;28;20234;-66
2023/05/06 05:14:13;;;;;;;1.40;1.30;;;;;;;;;;5018201;28;20206;-66
2023/05/06 05:16:40;;;;;;;1.30;1.20;;;;;;;;;;5017900;28;20233;-66
2023/05/06 05:19:08;;;;;;;1.20;1.13;;;;;;;;;;5018358;28;20224;-65
2023/05/06 05:21:35;;;;;;;1.00;1.00;;;;;;;;;;5018400;28;20206;-65
2023/05/06 05:24:04;;;;;;;1.05;1.05;;;;;;;;;;5018179;28;20217;-66
2023/05/06 05:26:31;;;;;;;1.08;1.05;;;;;;;;;;5018428;28;20206;-65
2023/05/06 05:28:59;;;;;;;1.13;1.10;;;;;;;;;;5018266;28;20211;-65
2023/05/06 05:31:26;;;;;;;1.13;1.10;;;;;;;;;;5018039;28;20237;-66
2023/05/06 05:33:54;;;;;;;1.10;1.10;;;;;;;;;;5017710;28;20206;-65
2023/05/06 05:36:22;;;;;;;1.10;1.10;;;;;;;;;;5017725;28;20213;-65
2023/05/06 05:38:49;;;;;;;1.00;1.00;;;;;;;;;;5017651;28;20206;-65
2023/05/06 05:41:18;;;;;;;1.20;1.20;;;;;;;;;;5017723;28;20210;-65
2023/05/06 05:43:45;;;;;;;1.10;1.10;;;;;;;;;;5018065;28;20206;-65
2023/05/06 05:46:13;;;;;;;1.13;1.08;;;;;;;;;;5017885;28;20214;-65
2023/05/06 05:48:40;;;;;;;1.10;1.10;;;;;;;;;;5016995;28;20241;-65
2023/05/06 05:51:08;;;;;;;1.27;1.17;;;;;;;;;;5017113;28;20406;-65
2023/05/06 05:53:35;;;;;;;1.33;1.27;;;;;;;;;;5016845;28;20264;-66
2023/05/06 05:56:03;;;;;;;1.10;1.10;;;;;;;;;;5017766;28;20237;-66
2023/05/06 05:58:31;;;;;;;1.00;1.00;;;;;;;;;;5017216;28;20214;-66
2023/05/06 06:01:00;;;;;;;1.05;1.05;;;;;;;;;;5017060;28;20282;-66
2023/05/06 06:03:27;;;;;;;1.17;1.08;;;;;;;;;;5017483;28;20241;-66
2023/05/06 06:05:55;;;;;;;1.30;1.20;;;;;;;;;;5017457;28;20214;-66
2023/05/06 06:08:22;;;;;;;1.00;1.00;;;;;;;;;;5016808;28;20213;-65
2023/05/06 06:10:49;;;;;;;0.95;0.95;;;;;;;;;;5016552;28;20206;-65
2023/05/06 06:13:17;;;;;;;1.13;1.10;;;;;;;;;;5017256;28;20248;-65
2023/05/06 06:15:45;;;;;;;1.17;1.17;;;;;;;;;;5017193;28;20233;-65
2023/05/06 06:18:13;;;;;;;1.27;1.27;;;;;;;;;;5017316;28;20637;-65
2023/05/06 06:20:40;;;;;;;1.20;1.20;;;;;;;;;;5017218;28;20198;-65
2023/05/06 06:23:08;;;;;;;1.20;1.20;;;;;;;;;;5016884;28;20203;-65
2023/05/06 06:25:35;;;;;;;1.08;1.08;;;;;;;;;;5016414;28;20214;-65
2023/05/06 06:28:03;;;;;;;1.05;1.05;;;;;;;;;;5017095;28;20206;-65
2023/05/06 06:30:30;;;;;;;1.00;1.00;;;;;;;;;;5016597;28;20206;-65
2023/05/06 06:33:00;;;;;;;0.88;0.88;;;;;;;;;;5016592;28;20650;-65
2023/05/06 06:35:27;;;;;;;1.25;1.20;;;;;;;;;;5016644;28;20313;-65
2023/05/06 06:37:54;;;;;;;1.08;1.08;;;;;;;;;;5016393;28;20225;-65
2023/05/06 06:40:22;;;;;;;1.20;1.20;;;;;;;;;;5016461;28;20653;-66
2023/05/06 06:42:50;;;;;;;0.95;0.95;;;;;;;;;;5016323;28;20198;-66
2023/05/06 06:45:17;;;;;;;0.98;0.98;;;;;;;;;;5018352;28;20206;-66
2023/05/06 06:47:45;;;;;;;1.30;1.20;;;;;;;;;;5020008;28;20222;-66
2023/05/06 06:50:13;;;;;;;1.10;1.10;;;;;;;;;;5020106;28;20590;-66
2023/05/06 06:52:41;;;;;;;0.90;0.90;;;;;;;;;;5019974;28;20241;-66
2023/05/06 06:55:11;;;;;;;1.05;1.00;;;;;;;;;;5018386;28;20218;-66
2023/05/06 06:57:39;;;;;;;0.98;0.98;;;;;;;;;;5000943;28;20203;-65
2023/05/06 07:00:07;;;;;;;0.93;0.93;;;;;;;;;;5000807;28;20218;-65
2023/05/06 07:02:35;;;;;;;1.10;1.10;;;;;;;;;;5000172;28;20207;-65
2023/05/06 07:05:02;;;;;;;0.80;0.80;;;;;;;;;;4999804;28;20215;-66
2023/05/06 07:07:31;;;;;;;1.48;1.00;;;;;;;;;;5000370;28;20213;-66
2023/05/06 07:09:59;;;;;;;1.00;1.00;;;;;;;;;;4999857;28;20211;-66
2023/05/06 07:12:27;;;;;;;1.00;1.00;;;;;;;;;;4999465;28;20258;-66
2023/05/06 07:14:54;;;;;;;1.00;1.00;;;;;;;;;;4999290;28;20730;-66
2023/05/06 07:17:21;;;;;;;1.00;1.00;;;;;;;;;;5000260;28;20207;-66
2023/05/06 07:19:49;;;;;;;1.10;1.00;;;;;;;;;;5000224;28;20244;-66
2023/05/06 07:22:16;;;;;;;0.98;0.98;;;;;;;;;;5000262;28;20202;-66
2023/05/06 07:24:45;;;;;;;1.33;1.23;;;;;;;;;;4999359;28;20286;-66
2023/05/06 07:27:12;;;;;;;1.10;1.00;;;;;;;;;;4999592;28;20207;-66
2023/05/06 07:29:40;;;;;;;1.10;1.00;;;;;;;;;;4999128;28;20207;-66
2023/05/06 07:32:07;;;;;;;1.20;1.10;;;;;;;;;;4999259;28;20231;-66
2023/05/06 07:34:35;;;;;;;0.85;0.85;;;;;;;;;;4999773;28;20215;-66
2023/05/06 07:37:03;;;;;;;0.98;0.98;;;;;;;;;;4999801;28;20211;-66
2023/05/06 07:39:31;;;;;;;1.35;1.10;;;;;;;;;;4999448;28;20238;-66
2023/05/06 07:42:00;;;;;;;1.00;1.00;;;;;;;;;;4999120;28;20210;-66
2023/05/06 07:44:27;;;;;;;0.90;0.90;;;;;;;;;;4999429;28;20879;-66
2023/05/06 07:46:55;;;;;;;1.42;1.33;;;;;;;;;;4999812;28;20207;-65
2023/05/06 07:49:22;;;;;;;1.00;1.00;;;;;;;;;;4998849;28;20206;-65
2023/05/06 07:51:50;;;;;;;1.17;1.08;;;;;;;;;;4998894;28;20238;-65
2023/05/06 07:54:17;;;;;;;1.40;1.30;;;;;;;;;;4999589;28;20508;-65
2023/05/06 07:56:45;;;;;;;1.10;1.10;;;;;;;;;;4998564;28;20211;-65
2023/05/06 07:59:14;;;;;;;1.15;1.08;;;;;;;;;;4998900;28;20711;-66
2023/05/06 08:01:41;;;;;;;1.23;1.00;;;;;;;;;;4998351;28;20214;-65
2023/05/06 08:04:09;;;;;;;1.08;1.00;;;;;;;;;;4998614;28;20598;-65
2023/05/06 08:06:36;;;;;;;1.23;1.00;;;;;;;;;;4998143;28;20207;-66
2023/05/06 08:09:03;;;;;;;1.23;1.13;;;;;;;;;;4998053;28;20207;-66
2023/05/06 08:11:31;;;;;;;1.02;1.02;;;;;;;;;;4998223;28;20288;-66
2023/05/06 08:13:58;;;;;;;1.23;1.10;;;;;;;;;;4998901;28;20239;-66
2023/05/06 08:16:27;;;;;;;1.17;1.08;;;;;;;;;;4998258;28;20207;-66
2023/05/06 08:18:55;;;;;;;1.10;1.10;;;;;;;;;;4997915;28;20391;-66
2023/05/06 08:21:22;;;;;;;1.00;1.00;;;;;;;;;;4997135;28;20604;-66
2023/05/06 08:23:49;;;;;;;1.83;1.33;;;;;;;;;;4998064;28;20203;-66
2023/05/06 08:26:17;;;;;;;1.20;1.10;;;;;;;;;;4998189;28;20566;-66
2023/05/06 08:28:44;;;;;;;1.08;1.08;;;;;;;;;;4997331;28;20270;-66
2023/05/06 08:31:11;;;;;;;1.08;0.98;;;;;;;;;;4998115;28;20215;-66
2023/05/06 08:33:40;;;;;;;1.30;1.20;;;;;;;;;;4997384;28;20269;-66
2023/05/06 08:36:08;;;;;;;1.48;1.08;;;;;;;;;;4998012;28;20207;-66
2023/05/06 08:38:35;;;;;;;1.13;1.02;;;;;;;;;;4997259;28;20226;-66
2023/05/06 08:41:08;;;;;;;1.15;1.05;;;;;;;;;;4997542;28;20293;-66
2023/05/06 08:43:39;;;;;;;1.00;1.00;;;;;;;;;;4997597;28;20210;-66
2023/05/06 08:46:07;;;;;;;1.08;1.02;;;;;;;;;;4998540;28;20229;-66
2023/05/06 08:48:34;;;;;;;1.20;1.10;;;;;;;;;;4997330;28;20241;-66
2023/05/06 08:51:04;;;;;;;0.90;0.90;;;;;;;;;;4997640;28;20203;-66
2023/05/06 08:53:31;;;;;;;1.05;1.05;;;;;;;;;;4997373;28;20518;-66
2023/05/06 08:56:02;;;;;;;1.10;1.08;;;;;;;;;;4998074;28;20218;-66
2023/05/06 08:58:31;;;;;;;1.20;1.10;;;;;;;;;;4997311;28;20218;-66
2023/05/06 09:00:59;;;;;;;0.90;0.90;;;;;;;;;;4997209;28;20208;-66
2023/05/06 09:03:27;;;;;;;1.58;1.30;;;;;;;;;;4996422;28;20227;-66
2023/05/06 09:05:54;;;;;;;1.58;1.02;;;;;;;;;;4997327;28;20202;-66
2023/05/06 09:08:23;;;;;;;1.10;1.00;;;;;;;;;;4996094;28;20207;-66
2023/05/06 09:10:50;;;;;;;1.33;0.98;;;;;;;;;;4996241;28;20207;-65
2023/05/06 09:13:18;;;;;;;1.27;1.17;;;;;;;;;;4995372;28;20246;-65
2023/05/06 09:15:47;;;;;;;1.40;1.30;;;;;;;;;;4996046;28;20235;-65
2023/05/06 09:18:14;;;;;;;1.00;1.00;;;;;;;;;;4996438;28;20238;-66
2023/05/06 09:20:42;;;;;;;1.10;1.05;;;;;;;;;;4996158;28;20207;-66
2023/05/06 09:23:09;;;;;;;0.90;0.90;;;;;;;;;;4996775;28;20226;-65
2023/05/06 09:25:38;;;;;;;1.02;0.90;;;;;;;;;;4996738;28;20215;-66
2023/05/06 09:28:06;;;;;;;1.35;1.00;;;;;;;;;;4996553;28;20207;-66
2023/05/06 09:30:34;;;;;;;1.65;1.10;;;;;;;;;;4996743;28;20202;-66
2023/05/06 09:33:03;;;;;;;1.05;1.00;;;;;;;;;;4996029;28;20325;-66
2023/05/06 09:35:36;;;;;;;0.90;0.90;;;;;;;;;;4996603;28;20203;-65
2023/05/06 09:38:03;;;;;;;1.27;1.00;;;;;;;;;;4996299;28;20203;-66
2023/05/06 09:40:31;;;;;;;0.98;0.98;;;;;;;;;;4996329;28;20537;-66
2023/05/06 09:43:00;;;;;;;0.90;0.80;;;;;;;;;;4997143;28;20206;-65
2023/05/06 09:45:27;;;;;;;1.00;0.90;;;;;;;;;;4996522;28;20207;-66
2023/05/06 09:47:55;;;;;;;1.38;0.90;;;;;;;;;;4995728;28;20207;-66
2023/05/06 09:50:22;;;;;;;1.05;1.00;;;;;;;;;;4995994;28;20202;-66
2023/05/06 09:52:50;;;;;;;1.13;1.02;;;;;;;;;;4996297;28;20231;-66
2023/05/06 09:55:19;;;;;;;0.80;0.80;;;;;;;;;;4995617;28;20203;-66
2023/05/06 09:57:46;;;;;;;1.13;1.02;;;;;;;;;;4996228;28;20207;-65
2023/05/06 10:00:16;;;;;;;0.80;0.80;;;;;;;;;;4996278;28;20203;-65
2023/05/06 10:02:44;;;;;;;0.90;0.90;;;;;;;;;;4996560;28;20203;-65
2023/05/06 10:05:12;;;;;;;1.30;1.20;;;;;;;;;;4996323;28;20670;-66
2023/05/06 10:07:40;;;;;;;1.00;0.93;;;;;;;;;;4995654;28;20237;-66
2023/05/06 10:10:09;;;;;;;1.10;0.98;;;;;;;;;;4996261;28;20673;-66
2023/05/06 10:12:36;;;;;;;0.90;0.90;;;;;;;;;;4995879;28;20226;-65
2023/05/06 10:15:04;;;;;;;0.93;0.90;;;;;;;;;;4995298;28;20635;-65
2023/05/06 10:17:33;;;;;;;1.10;0.93;;;;;;;;;;4995081;28;20213;-66
2023/05/06 10:20:01;;;;;;;0.77;0.77;;;;;;;;;;4994615;28;20210;-65
2023/05/06 10:22:35;;;;;;;0.98;0.95;;;;;;;;;;4995463;28;20202;-65
2023/05/06 10:25:05;;;;;;;0.88;0.85;;;;;;;;;;4995510;28;20214;-66
2023/05/06 10:27:36;;;;;;;0.88;0.88;;;;;;;;;;4995035;28;20493;-66
2023/05/06 10:30:03;;;;;;;1.08;1.00;;;;;;;;;;4995274;28;20211;-66
2023/05/06 10:32:33;;;;;;;0.90;0.90;;;;;;;;;;4995702;28;20206;-66
2023/05/06 10:35:06;;;;;;;0.80;0.80;;;;;;;;;;4994975;28;20218;-66
2023/05/06 10:37:34;;;;;;;0.80;0.80;;;;;;;;;;4995733;28;20576;-66
2023/05/06 10:40:02;;;;;;;0.95;0.90;;;;;;;;;;4995811;28;20516;-65
2023/05/06 10:42:34;;;;;;;0.90;0.85;;;;;;;;;;4979127;28;20586;-65
2023/05/06 10:45:02;;;;;;;0.80;0.80;;;;;;;;;;4995330;28;20207;-66
2023/05/06 10:47:30;;;;;;;1.15;0.80;;;;;;;;;;4995528;28;20302;-65
2023/05/06 10:50:16;;;;;;;0.85;0.85;;;;;;;;;;4995625;28;20217;-65
2023/05/06 10:52:48;;;;;;;0.82;0.82;;;;;;;;;;4994849;28;20227;-65
2023/05/06 10:55:28;;;;;;;0.82;0.82;;;;;;;;;;4995647;28;20218;-66
2023/05/06 10:57:56;;;;;;;0.82;0.80;;;;;;;;;;4995220;28;20218;-66
2023/05/06 11:00:24;;;;;;;1.52;0.95;;;;;;;;;;4994968;28;20715;-66
2023/05/06 11:02:55;;;;;;;0.80;0.80;;;;;;;;;;4994820;28;20207;-65
2023/05/06 11:05:23;;;;;;;0.80;0.70;;;;;;;;;;4994299;28;20305;-66
2023/05/06 11:07:52;;;;;;;0.70;0.70;;;;;;;;;;4994847;28;20210;-65
2023/05/06 11:10:32;;;;;;;1.02;0.90;;;;;;;;;;4994948;28;20204;-66
2023/05/06 11:13:00;;;;;;;0.80;0.80;;;;;;;;;;4995165;28;20290;-66
2023/05/06 11:15:38;;;;;;;0.80;0.80;;;;;;;;;;4995300;28;20254;-65
2023/05/06 11:18:20;;;;;;;0.57;0.57;;;;;;;;;;4995691;28;20218;-65
2023/05/06 11:20:49;;;;;;;0.85;0.80;;;;;;;;;;4994936;28;20204;-65
2023/05/06 11:23:18;;;;;;;0.73;0.73;;;;;;;;;;4994902;28;20203;-65
2023/05/06 11:25:46;;;;;;;0.90;0.90;;;;;;;;;;4995566;28;20219;-65
2023/05/06 11:28:14;;;;;;;0.82;0.80;;;;;;;;;;4995348;28;20207;-65
2023/05/06 11:30:42;;;;;;;0.82;0.80;;;;;;;;;;4995228;28;20234;-65
2023/05/06 11:33:13;;;;;;;0.75;0.75;;;;;;;;;;4997931;28;20230;-65
2023/05/06 11:35:41;;;;;;;0.77;0.77;;;;;;;;;;4998207;28;20207;-65
2023/05/06 11:38:08;;;;;;;0.75;0.70;;;;;;;;;;4998411;28;20218;-66
2023/05/06 11:40:37;;;;;;;0.75;0.75;;;;;;;;;;4998507;28;20218;-66
2023/05/06 11:43:11;;;;;;;1.05;0.80;;;;;;;;;;4997427;28;20203;-66
2023/05/06 11:45:41;;;;;;;0.60;0.60;;;;;;;;;;4997749;28;20226;-65
2023/05/06 11:48:11;;;;;;;1.05;0.80;;;;;;;;;;4997361;28;20239;-66
2023/05/06 11:50:39;;;;;;;0.70;0.70;;;;;;;;;;4997410;28;20206;-66
2023/05/06 11:53:06;;;;;;;0.82;0.82;;;;;;;;;;4997426;28;20226;-66
2023/05/06 11:55:33;;;;;;;0.63;0.60;;;;;;;;;;4998146;28;20284;-65
2023/05/06 11:58:02;;;;;;;1.00;0.80;;;;;;;;;;4997333;28;20314;-65
2023/05/06 12:00:30;;;;;;;0.90;0.80;;;;;;;;;;4997463;28;20218;-65
2023/05/06 12:02:57;;;;;;;0.70;0.70;;;;;;;;;;4997805;28;20225;-65
2023/05/06 12:05:24;;;;;;;1.50;0.82;;;;;;;;;;4997322;28;20519;-65
2023/05/06 12:07:52;;;;;;;0.70;0.70;;;;;;;;;;4997604;28;20217;-65
2023/05/06 12:10:20;;;;;;;0.80;0.75;;;;;;;;;;4997184;28;20207;-66
2023/05/06 12:12:48;;;;;;;0.80;0.70;;;;;;;;;;4997359;28;20479;-66
2023/05/06 12:15:17;;;;;;;0.70;0.70;;;;;;;;;;4997173;28;20234;-66
2023/05/06 12:17:44;;;;;;;0.73;0.73;;;;;;;;;;4997521;28;20203;-65
2023/05/06 12:20:12;;;;;;;1.67;0.90;;;;;;;;;;4997108;28;20207;-65
2023/05/06 12:22:40;;;;;;;1.63;0.85;;;;;;;;;;4997229;28;20211;-65
2023/05/06 12:25:15;;;;;;;1.08;0.70;;;;;;;;;;4997319;28;20203;-65
2023/05/06 12:27:43;;;;;;;0.95;0.80;;;;;;;;;;4997376;28;20214;-65
2023/05/06 12:30:11;;;;;;;1.63;0.75;;;;;;;;;;4997232;28;20234;-65
2023/05/06 12:32:56;;;;;;;1.35;0.68;;;;;;;;;;4997886;28;20211;-65
2023/05/06 12:35:28;;;;;;;1.08;0.75;;;;;;;;;;4997224;28;20239;-65
2023/05/06 12:37:55;;;;;;;0.73;0.73;;;;;;;;;;4997622;28;20754;-65
2023/05/06 12:40:23;;;;;;;0.80;0.80;;;;;;;;;;4997318;28;20800;-65
2023/05/06 12:42:56;;;;;;;0.85;0.85;;;;;;;;;;4995686;28;20572;-65
2023/05/06 12:45:24;;;;;;;1.00;0.80;;;;;;;;;;4996398;28;20214;-65
2023/05/06 12:47:56;;;;;;;0.98;0.70;;;;;;;;;;4997072;28;20206;-65
2023/05/06 12:50:43;;;;;;;1.70;0.88;;;;;;;;;;4995725;28;20215;-65
2023/05/06 12:53:12;;;;;;;0.70;0.70;;;;;;;;;;4996789;28;20207;-65
2023/05/06 12:55:40;;;;;;;1.10;0.70;;;;;;;;;;4995724;28;20207;-65
2023/05/06 12:58:16;;;;;;;0.70;0.70;;;;;;;;;;4995652;28;20533;-65
2023/05/06 13:00:43;;;;;;;0.68;0.68;;;;;;;;;;4995619;28;20207;-65
2023/05/06 13:03:13;;;;;;;0.82;0.82;;;;;;;;;;4996079;28;20211;-66
2023/05/06 13:05:40;;;;;;;0.70;0.70;;;;;;;;;;4995986;28;20218;-66
2023/05/06 13:08:08;;;;;;;1.17;0.80;;;;;;;;;;4996072;28;20215;-65
2023/05/06 13:10:35;;;;;;;1.75;0.77;;;;;;;;;;4996364;28;20207;-65
2023/05/06 13:13:02;;;;;;;0.70;0.70;;;;;;;;;;4995624;28;20214;-66
2023/05/06 13:15:30;;;;;;;1.05;0.75;;;;;;;;;;4996328;28;20222;-65
2023/05/06 13:17:57;;;;;;;2.33;1.08;;;;;;;;;;4996000;28;20498;-65
2023/05/06 13:20:26;;;;;;;1.10;1.00;;;;;;;;;;4995609;28;20221;-65
2023/05/06 13:22:53;;;;;;;0.98;0.90;;;;;;;;;;4994795;28;20218;-65
2023/05/06 13:25:21;;;;;;;1.80;0.90;;;;;;;;;;4995808;28;20204;-66
2023/05/06 13:27:48;;;;;;;0.77;0.70;;;;;;;;;;4995076;28;20246;-66
2023/05/06 13:30:16;;;;;;;0.90;0.80;;;;;;;;;;4996258;28;20218;-65
2023/05/06 13:32:43;;;;;;;1.00;0.63;;;;;;;;;;4994174;28;20214;-65
2023/05/06 13:35:11;;;;;;;1.75;0.80;;;;;;;;;;4995833;28;20219;-65
2023/05/06 13:37:39;;;;;;;1.00;0.90;;;;;;;;;;4995190;28;20207;-66
2023/05/06 13:40:07;;;;;;;0.80;0.70;;;;;;;;;;4995760;28;20218;-65
2023/05/06 13:42:34;;;;;;;0.90;0.90;;;;;;;;;;4995252;28;20270;-65
2023/05/06 13:45:02;;;;;;;0.90;0.90;;;;;;;;;;4995592;28;20408;-66
2023/05/06 13:47:30;;;;;;;0.80;0.80;;;;;;;;;;4995795;28;20214;-66
2023/05/06 13:49:57;;;;;;;2.47;0.95;;;;;;;;;;4995861;28;20674;-65
2023/05/06 13:52:25;;;;;;;1.33;0.80;;;;;;;;;;4994641;28;20242;-66
2023/05/06 13:54:55;;;;;;;0.80;0.80;;;;;;;;;;4995071;28;20325;-66
2023/05/06 13:57:24;;;;;;;0.80;0.68;;;;;;;;;;4995626;28;20234;-66
2023/05/06 13:59:52;;;;;;;1.25;0.70;;;;;;;;;;4995415;28;20723;-65
2023/05/06 14:02:19;;;;;;;0.70;0.70;;;;;;;;;;4994154;28;20214;-65
2023/05/06 14:04:46;;;;;;;0.85;0.73;;;;;;;;;;4995405;28;20203;-65
2023/05/06 14:07:14;;;;;;;2.30;0.80;;;;;;;;;;4994464;28;20209;-65
2023/05/06 14:09:41;;;;;;;1.05;0.90;;;;;;;;;;4994234;28;20206;-65
2023/05/06 14:12:10;;;;;;;2.05;0.60;;;;;;;;;;5013746;28;20213;-65
2023/05/06 14:14:37;;;;;;;1.95;0.85;;;;;;;;;;5014599;28;20242;-65
2023/05/06 14:17:05;;;;;;;0.80;0.80;;;;;;;;;;5014436;28;20206;-65
2023/05/06 14:19:32;;;;;;;1.23;0.70;;;;;;;;;;5013993;28;20210;-65
2023/05/06 14:21:59;;;;;;;0.70;0.70;;;;;;;;;;5013837;28;20485;-66
2023/05/06 14:24:27;;;;;;;2.00;0.73;;;;;;;;;;5014137;28;20202;-66
2023/05/06 14:26:54;;;;;;;1.40;0.75;;;;;;;;;;5013775;28;20220;-65
2023/05/06 14:29:23;;;;;;;1.35;0.65;;;;;;;;;;5013208;28;20221;-66
2023/05/06 14:31:52;;;;;;;0.60;0.60;;;;;;;;;;5014667;28;20210;-65
2023/05/06 14:34:19;;;;;;;0.73;0.70;;;;;;;;;;5013199;28;20337;-66
2023/05/06 14:36:46;;;;;;;0.80;0.80;;;;;;;;;;5013032;28;20666;-65
2023/05/06 14:39:15;;;;;;;0.95;0.75;;;;;;;;;;5014016;28;20206;-65
2023/05/06 14:41:42;;;;;;;0.70;0.70;;;;;;;;;;5014712;28;20313;-65
2023/05/06 14:44:09;;;;;;;0.90;0.75;;;;;;;;;;5014691;28;20585;-65
2023/05/06 14:46:38;;;;;;;1.58;0.80;;;;;;;;;;5013451;28;20207;-65
2023/05/06 14:49:05;;;;;;;0.68;0.60;;;;;;;;;;5014215;28;20206;-66